Austin Bergstrom International Airport Austin US
ICAO: KAUS
IATA: AUS
Category: Large
Scheduled Services: Yes

Elevation: 542 ft
TransAlt. 18000 ft.

Airport Communications:
APP/DEP:118.8
ASOS:128.875
ATIS:124.4
CLNC DEL:125.5
GND:121.7
ARNG OPS:36.8
SAN ANGELO RDO:122.55
TWR:121
UNICOM:122.95

KAUS Zoom In..

If Map Doesn't Load, Click Here

Runways:

(A) RW 17L length 9000 ft width 150 ft
ILS 110.50 / hdg 173

(B) RW 17R length 12248 ft width 150 ft
ILS 110.95 / hdg 173

(C) RW 35L length 12248 ft width 150 ft
ILS 110.95 / hdg 353

(D) RW 35R length 9000 ft width 150 ft
ILS 110.50 / hdg 353

Location; KAUS
Day. 21 / Time. 13.53 Zulu
* Altimeter: 29.95
* Temperature: 27° c. 80.6°f.
* Wind from: 170° Speed 06 kn.
Dewpoint: 26° c.
Visibility: 9 Statute Miles.
Clouds: Broken 800 ft.
Clouds: Overcast 1600 ft.

KAUS 211353Z 17006KT 9SM BKN008 OVC016 27/26 A2995 RMK AO2 RAB13E42 SLP130 P0000 T02670256 $


Wind From 170°
Speed 06 kn.

 
 
jpsmedia.com for Web Design worldairports.se 2018   terms of use